Panamax Applause — 5BVD2 — position and weather

sailwx.info

Track history (hours):
 
Tides and Currents Weather Stations Pressure Air Temp Water Temp Dewpoint Dewpoint Depression Visibility Wind Speed Wind Dir Waves Ship Positions

Panamax Applause

Last reported at 2014-Oct-09 14:32 UTC. Time now 2014-Oct-23 07:58 UTC.
Position N 38°21' E 121°30'.
Warning: this ship's position is 13 days out of date.

Length 225 m; draft 7.2 m.

Type: Cargo ship. MMSI: 209577000.

Date/timePositionNaut miles runAvg speedWind from/ knotsBaromVisibWave heightAir tempDewpointWater temp
2014-Oct-09 14:32N 38°21' E 121°30'1412.6
2014-Oct-09 13:24N 38°14' E 121°45'1112.5
2014-Oct-09 12:32N 38°08' E 121°57'1312.6
2014-Oct-09 11:31N 38°02' E 122°11'1312.9
2014-Oct-09 10:31N 37°56' E 122°26'1314.1
2014-Oct-09 09:34N 37°52' E 122°42'1414.4
2014-Oct-09 08:34N 37°48' E 122°60'1413.8
2014-Oct-09 07:33N 37°43' E 123°16'1313.2
2014-Oct-09 06:33N 37°37' E 123°31'1312.4
2014-Oct-09 05:30N 37°32' E 123°46'1312.1
2014-Oct-09 04:25N 37°27' E 124°02'  
Track history (hours):
 
Tides and Currents Weather Stations Pressure Air Temp Water Temp Dewpoint Dewpoint Depression Visibility Wind Speed Wind Dir Waves Ship Positions

Panamax Applause

Last reported at 2014-Oct-09 14:32 UTC. Time now 2014-Oct-23 07:58 UTC.
Position N 38°21' E 121°30'.
Warning: this ship's position is 13 days out of date.

Length 225 m; draft 7.2 m.

Type: Cargo ship. MMSI: 209577000.

Date/timePositionNaut miles runAvg speedWind from/ knotsBaromVisibWave heightAir tempDewpointWater temp
2014-Oct-09 14:32N 38°21' E 121°30'1412.6
2014-Oct-09 13:24N 38°14' E 121°45'1112.5
2014-Oct-09 12:32N 38°08' E 121°57'1312.6
2014-Oct-09 11:31N 38°02' E 122°11'1312.9
2014-Oct-09 10:31N 37°56' E 122°26'1314.1
2014-Oct-09 09:34N 37°52' E 122°42'1414.4
2014-Oct-09 08:34N 37°48' E 122°60'1413.8
2014-Oct-09 07:33N 37°43' E 123°16'1313.2
2014-Oct-09 06:33N 37°37' E 123°31'1312.4
2014-Oct-09 05:30N 37°32' E 123°46'1312.1
2014-Oct-09 04:25N 37°27' E 124°02'  

Dump ship's entire track history